Time;durP1;ratioP1;P1;durP2;ratioP2;P2;SDS_P1;SDS_P2;PMS_P1;PMS_P2;Temp;Humidity;BMP_temperature;BMP_pressure;BME280_temperature;BME280_humidity;BME280_pressure;Samples;Min_cycle;Max_cycle;Signal;HPM_P1;HPM_P2
2023/08/14 00:00:29;;;;;;;18.52;11.20;;;;;;;16.46;100.00;101530.53;5097420;28;20069;-49
2023/08/14 00:02:54;;;;;;;18.00;12.63;;;;;;;16.44;100.00;101529.00;5098756;28;20019;-48
2023/08/14 00:05:19;;;;;;;19.42;14.15;;;;;;;16.42;100.00;101525.59;5100827;28;20076;-49
2023/08/14 00:07:45;;;;;;;24.08;16.17;;;;;;;16.43;100.00;101524.59;5094977;28;20059;-49
2023/08/14 00:10:10;;;;;;;29.33;18.10;;;;;;;16.39;100.00;101526.72;5094463;28;20047;-49
2023/08/14 00:12:35;;;;;;;25.00;16.55;;;;;;;16.39;100.00;101524.03;5099017;28;20024;-48
2023/08/14 00:15:00;;;;;;;23.10;15.52;;;;;;;16.37;100.00;101531.38;5099885;28;20020;-49
2023/08/14 00:17:26;;;;;;;23.38;16.92;;;;;;;16.34;100.00;101528.97;5094926;28;20028;-48
2023/08/14 00:19:51;;;;;;;23.17;16.83;;;;;;;16.31;100.00;101523.06;5100096;28;20099;-48
2023/08/14 00:22:16;;;;;;;25.10;17.85;;;;;;;16.26;100.00;101524.28;5101541;28;20024;-48
2023/08/14 00:24:42;;;;;;;27.25;16.92;;;;;;;16.22;100.00;101520.22;5094460;28;20020;-49
2023/08/14 00:27:07;;;;;;;24.13;17.00;;;;;;;16.24;100.00;101525.44;5099601;28;20046;-49
2023/08/14 00:29:32;;;;;;;23.90;17.08;;;;;;;16.19;100.00;101519.66;5105136;28;20099;-49
2023/08/14 00:31:57;;;;;;;22.30;16.08;;;;;;;16.21;100.00;101512.31;5102513;28;20038;-49
2023/08/14 00:34:23;;;;;;;21.23;14.77;;;;;;;16.19;100.00;101520.47;5105512;28;20355;-49
2023/08/14 00:36:48;;;;;;;21.42;14.45;;;;;;;16.17;100.00;101516.22;5095562;28;20102;-49
2023/08/14 00:39:14;;;;;;;22.90;15.75;;;;;;;16.11;100.00;101519.47;5104815;28;20489;-49
2023/08/14 00:41:39;;;;;;;24.27;16.70;;;;;;;16.05;100.00;101524.41;5107170;28;20077;-48
2023/08/14 00:44:04;;;;;;;26.08;16.63;;;;;;;16.05;100.00;101516.38;5103218;28;20100;-49
2023/08/14 00:46:31;;;;;;;21.83;15.93;;;;;;;16.01;100.00;101514.94;5098765;28;20481;-48
2023/08/14 00:48:56;;;;;;;23.60;15.93;;;;;;;15.98;100.00;101517.03;5097654;28;20031;-49
2023/08/14 00:51:22;;;;;;;22.63;15.98;;;;;;;15.93;100.00;101522.78;5103370;28;20061;-49
2023/08/14 00:53:49;;;;;;;21.55;15.98;;;;;;;15.89;100.00;101511.50;5103555;28;20031;-49
2023/08/14 00:56:15;;;;;;;24.00;14.88;;;;;;;15.87;100.00;101516.16;5102312;28;20024;-48
2023/08/14 00:58:41;;;;;;;20.92;15.75;;;;;;;15.85;100.00;101514.59;5100122;28;20023;-48
2023/08/14 01:01:07;;;;;;;22.23;14.45;;;;;;;15.83;100.00;101508.53;5101697;28;20116;-49
2023/08/14 01:03:34;;;;;;;22.08;15.00;;;;;;;15.78;100.00;101518.81;5102340;28;20078;-51
2023/08/14 01:06:00;;;;;;;19.60;14.00;;;;;;;15.79;100.00;101507.13;5097409;28;20032;-49
2023/08/14 01:08:26;;;;;;;17.60;13.05;;;;;;;15.80;100.00;101506.94;5100919;28;20098;-49
2023/08/14 01:11:12;;;;;;;17.80;12.90;;;;;;;15.82;100.00;101501.47;5099012;28;20028;-48
2023/08/14 01:13:46;;;;;;;16.95;12.48;;;;;;;15.79;100.00;101502.59;5115358;27;20035;-49
2023/08/14 01:16:20;;;;;;;16.58;13.02;;;;;;;15.73;100.00;101495.06;5095814;28;20032;-49
2023/08/14 01:18:47;;;;;;;17.45;12.10;;;;;;;15.75;100.00;101500.28;5094006;28;20038;-50
2023/08/14 01:21:15;;;;;;;15.02;11.80;;;;;;;15.76;100.00;101497.50;5096881;28;20381;-49
2023/08/14 01:23:56;;;;;;;17.15;12.15;;;;;;;15.72;100.00;101494.22;5093288;28;20020;-49
2023/08/14 01:26:22;;;;;;;18.13;13.00;;;;;;;15.71;100.00;101491.69;5100676;28;20028;-49
2023/08/14 01:28:48;;;;;;;18.48;12.57;;;;;;;15.68;100.00;101483.91;5097776;28;20024;-49
2023/08/14 01:31:14;;;;;;;15.10;12.38;;;;;;;15.67;100.00;101485.75;5101229;28;20051;-49
2023/08/14 01:33:39;;;;;;;18.13;12.13;;;;;;;15.67;100.00;101487.56;5098798;28;20064;-49
2023/08/14 01:36:18;;;;;;;17.10;11.68;;;;;;;15.66;100.00;101481.38;5101976;28;20473;-49
2023/08/14 01:38:55;;;;;;;;;;;;;;;15.76;100.00;101486.78;5093235;28;20034;-49
2023/08/14 01:41:26;;;;;;;15.40;11.48;;;;;;;15.63;100.00;101481.63;5103238;28;19904;-48
2023/08/14 01:43:57;;;;;;;16.90;11.77;;;;;;;15.60;100.00;101476.53;5096929;28;20027;-49
2023/08/14 01:46:25;;;;;;;18.05;12.15;;;;;;;15.57;100.00;101470.63;5093003;28;20031;-48
2023/08/14 01:48:52;;;;;;;18.80;11.90;;;;;;;15.55;100.00;101454.69;5104025;28;20362;-48
2023/08/14 01:51:19;;;;;;;16.02;11.38;;;;;;;15.53;100.00;101462.00;5102073;28;20039;-49
2023/08/14 01:53:46;;;;;;;17.20;11.55;;;;;;;15.48;100.00;101454.38;5097494;28;20389;-48
2023/08/14 01:56:11;;;;;;;14.55;10.70;;;;;;;15.54;100.00;101458.38;5100650;28;20031;-49
2023/08/14 01:58:36;;;;;;;18.90;10.68;;;;;;;15.52;100.00;101461.19;5102454;28;20028;-49
2023/08/14 02:01:02;;;;;;;16.80;11.20;;;;;;;15.50;100.00;101451.56;5093552;28;20032;-49
2023/08/14 02:03:27;;;;;;;19.63;11.18;;;;;;;15.47;100.00;101450.03;5100964;28;20102;-48
2023/08/14 02:05:52;;;;;;;16.48;10.27;;;;;;;15.46;100.00;101450.16;5097721;28;20405;-49
2023/08/14 02:08:18;;;;;;;15.32;9.93;;;;;;;15.47;100.00;101446.47;5100294;28;20043;-49
2023/08/14 02:10:46;;;;;;;12.65;9.10;;;;;;;15.43;100.00;101447.75;5101727;28;20397;-49
2023/08/14 02:13:11;;;;;;;12.25;8.82;;;;;;;15.42;100.00;101441.56;5097639;28;20035;-49
2023/08/14 02:15:37;;;;;;;17.13;9.52;;;;;;;15.44;100.00;101444.09;5099912;28;20024;-49
2023/08/14 02:18:02;;;;;;;18.02;9.63;;;;;;;15.39;100.00;101439.13;5100894;28;20496;-48
2023/08/14 02:20:27;;;;;;;12.07;9.27;;;;;;;15.43;100.00;101445.06;5097338;28;20019;-48
2023/08/14 02:22:53;;;;;;;13.02;9.32;;;;;;;15.43;100.00;101445.91;5101373;28;20024;-48
2023/08/14 02:25:18;;;;;;;16.33;9.50;;;;;;;15.41;100.00;101441.69;5101886;28;20036;-49
2023/08/14 02:27:43;;;;;;;13.98;9.93;;;;;;;15.40;100.00;101435.47;5100837;28;20024;-49
2023/08/14 02:30:09;;;;;;;15.00;9.30;;;;;;;15.41;100.00;101441.69;5097830;28;20425;-49
2023/08/14 02:32:34;;;;;;;10.40;9.02;;;;;;;15.41;100.00;101433.66;5096617;28;20384;-48
2023/08/14 02:34:59;;;;;;;12.40;8.27;;;;;;;15.43;100.00;101427.16;5099932;28;20028;-49
2023/08/14 02:37:25;;;;;;;10.20;8.05;;;;;;;15.39;100.00;101422.22;5100900;28;20020;-49
2023/08/14 02:39:50;;;;;;;11.23;8.07;;;;;;;15.36;100.00;101424.19;5099735;28;20489;-49
2023/08/14 02:42:17;;;;;;;11.93;8.00;;;;;;;15.34;100.00;101428.84;5101827;28;20020;-48
2023/08/14 02:44:42;;;;;;;13.90;7.85;;;;;;;15.36;100.00;101423.34;5100988;28;20151;-49
2023/08/14 02:47:07;;;;;;;12.30;8.18;;;;;;;15.32;100.00;101424.56;5099716;28;20536;-49
2023/08/14 02:49:33;;;;;;;10.98;7.15;;;;;;;15.32;100.00;101420.09;5098446;28;20089;-48
2023/08/14 02:51:59;;;;;;;10.88;7.85;;;;;;;15.29;100.00;101428.38;5096517;28;20527;-48
2023/08/14 02:54:24;;;;;;;10.88;6.65;;;;;;;15.25;100.00;101429.63;5095345;28;20055;-48
2023/08/14 02:56:50;;;;;;;9.32;6.95;;;;;;;15.26;100.00;101423.31;5100360;28;20036;-49
2023/08/14 02:59:15;;;;;;;9.88;6.47;;;;;;;15.26;100.00;101420.63;5097123;28;20481;-48
2023/08/14 03:01:41;;;;;;;9.52;6.55;;;;;;;15.25;100.00;101416.25;5099913;28;20028;-48
2023/08/14 03:04:06;;;;;;;13.65;7.00;;;;;;;15.20;100.00;101412.28;5096610;28;20084;-49
2023/08/14 03:06:31;;;;;;;11.75;7.30;;;;;;;15.15;100.00;101418.03;5103349;28;20470;-49
2023/08/14 03:08:58;;;;;;;8.50;6.65;;;;;;;15.13;100.00;101418.16;5101165;28;20106;-48
2023/08/14 03:11:23;;;;;;;11.00;6.95;;;;;;;15.14;100.00;101411.84;5098080;28;20035;-49
2023/08/14 03:13:49;;;;;;;10.85;7.18;;;;;;;15.11;100.00;101411.25;5097552;28;20023;-48
2023/08/14 03:16:14;;;;;;;11.68;7.25;;;;;;;15.09;100.00;101416.75;5100122;28;20028;-48
2023/08/14 03:18:40;;;;;;;8.63;6.45;;;;;;;15.10;100.00;101429.13;5101104;28;20024;-49
2023/08/14 03:21:05;;;;;;;8.63;6.47;;;;;;;15.08;100.00;101427.56;5104008;28;20090;-49
2023/08/14 03:23:31;;;;;;;9.85;6.75;;;;;;;15.07;100.00;101421.38;5104658;28;20070;-48
2023/08/14 03:25:56;;;;;;;12.18;6.82;;;;;;;15.03;100.00;101432.47;5102212;28;20062;-48
2023/08/14 03:28:21;;;;;;;9.38;6.32;;;;;;;15.01;100.00;101424.59;5102186;28;20024;-49
2023/08/14 03:30:48;;;;;;;9.95;6.80;;;;;;;15.02;100.00;101425.41;5103245;28;20025;-49
2023/08/14 03:33:13;;;;;;;8.90;6.40;;;;;;;15.01;100.00;101413.88;5105176;28;20449;-49
2023/08/14 03:35:39;;;;;;;9.10;6.15;;;;;;;15.01;100.00;101413.03;5103061;27;20107;-49
2023/08/14 03:38:04;;;;;;;10.55;6.25;;;;;;;14.98;100.00;101428.34;5104691;28;20075;-49
2023/08/14 03:40:30;;;;;;;7.75;6.55;;;;;;;14.95;100.00;101423.31;5107040;28;20106;-48
2023/08/14 03:42:55;;;;;;;9.55;7.30;;;;;;;14.91;100.00;101429.88;5098642;28;20109;-49
2023/08/14 03:45:21;;;;;;;9.05;5.85;;;;;;;14.92;100.00;101436.94;5103006;28;20135;-48
2023/08/14 03:47:46;;;;;;;11.32;6.40;;;;;;;14.89;100.00;101417.59;5103913;28;20035;-48
2023/08/14 03:50:11;;;;;;;12.75;7.03;;;;;;;14.89;100.00;101429.16;5103028;28;20521;-48
2023/08/14 03:52:37;;;;;;;11.20;6.32;;;;;;;14.82;100.00;101429.81;5101911;28;20032;-49
2023/08/14 03:55:03;;;;;;;13.52;6.45;;;;;;;14.80;100.00;101433.47;5100894;28;20596;-49
2023/08/14 03:57:28;;;;;;;9.85;6.47;;;;;;;14.81;100.00;101420.94;5102330;28;20095;-49
2023/08/14 03:59:54;;;;;;;9.55;6.35;;;;;;;14.80;100.00;101416.56;5100844;28;20523;-49
2023/08/14 04:02:19;;;;;;;8.23;5.85;;;;;;;14.78;100.00;101422.03;5103188;28;20535;-49
2023/08/14 04:04:44;;;;;;;8.02;6.75;;;;;;;14.77;100.00;101427.53;5101408;28;20482;-49
2023/08/14 04:07:10;;;;;;;9.77;6.07;;;;;;;14.75;100.00;101424.13;5105689;28;20031;-51
2023/08/14 04:09:35;;;;;;;8.70;6.03;;;;;;;14.74;100.00;101425.97;5104261;28;20069;-49
2023/08/14 04:12:01;;;;;;;10.43;6.25;;;;;;;14.74;100.00;101417.09;5104054;28;20031;-49
2023/08/14 04:14:27;;;;;;;6.85;5.95;;;;;;;14.71;100.00;101410.19;5099267;28;20020;-48
2023/08/14 04:16:54;;;;;;;10.70;6.22;;;;;;;14.69;100.00;101411.28;5102440;28;20032;-49
2023/08/14 04:19:20;;;;;;;10.70;6.60;;;;;;;14.69;100.00;101409.47;5099096;28;20035;-48
2023/08/14 04:21:45;;;;;;;10.93;6.85;;;;;;;14.65;100.00;101407.19;5102601;28;20473;-48
2023/08/14 04:24:11;;;;;;;11.20;6.80;;;;;;;14.68;100.00;101402.41;5104322;28;20024;-49
2023/08/14 04:26:36;;;;;;;11.38;6.75;;;;;;;14.66;100.00;101404.38;5103125;28;20035;-48
2023/08/14 04:29:07;;;;;;;11.55;7.00;;;;;;;14.66;100.00;101404.38;5105809;28;20054;-49
2023/08/14 04:31:37;;;;;;;9.93;6.10;;;;;;;14.68;100.00;101396.22;5103582;28;20385;-48
2023/08/14 04:34:03;;;;;;;10.48;6.63;;;;;;;14.65;100.00;101394.66;5100251;28;20035;-49
2023/08/14 04:36:31;;;;;;;9.25;6.20;;;;;;;14.65;100.00;101399.16;5101119;28;20390;-48
2023/08/14 04:38:56;;;;;;;7.65;6.50;;;;;;;14.66;100.00;101395.53;5100872;28;20397;-50
2023/08/14 04:41:22;;;;;;;11.07;5.65;;;;;;;14.65;100.00;101393.81;5100389;28;20024;-51
2023/08/14 04:43:47;;;;;;;10.82;6.63;;;;;;;14.66;100.00;101393.69;5098580;28;20073;-49
2023/08/14 04:46:37;;;;;;;8.88;6.50;;;;;;;14.62;100.00;101373.53;5102500;28;20031;-49
2023/08/14 04:49:02;;;;;;;;;;;;;;;14.75;100.00;101386.69;5099636;28;20050;-49
2023/08/14 04:51:28;;;;;;;9.73;5.93;;;;;;;14.71;100.00;101379.94;5097495;28;20354;-48
2023/08/14 04:53:57;;;;;;;7.10;6.10;;;;;;;14.70;100.00;101378.22;5101987;28;20038;-48
2023/08/14 04:56:23;;;;;;;9.52;6.68;;;;;;;14.74;100.00;101385.03;5103428;28;20023;-49
2023/08/14 04:58:49;;;;;;;12.93;6.53;;;;;;;14.76;100.00;101372.38;5099657;28;20020;-48
2023/08/14 05:01:15;;;;;;;7.97;6.32;;;;;;;14.76;100.00;101359.00;5105898;28;20393;-49
2023/08/14 05:03:40;;;;;;;7.57;6.72;;;;;;;14.78;100.00;101363.22;5096762;28;20027;-48
2023/08/14 05:06:05;;;;;;;10.85;6.93;;;;;;;14.81;100.00;101370.13;5097767;28;20016;-49
2023/08/14 05:08:31;;;;;;;10.75;7.03;;;;;;;14.84;100.00;101371.69;5101009;28;20038;-48
2023/08/14 05:10:56;;;;;;;12.05;7.07;;;;;;;14.87;100.00;101360.72;5097314;28;20024;-48
2023/08/14 05:13:22;;;;;;;9.30;6.90;;;;;;;14.91;100.00;101357.66;5100866;28;20411;-49
2023/08/14 05:15:48;;;;;;;9.07;6.45;;;;;;;14.97;100.00;101350.91;5093990;28;20071;-49
2023/08/14 05:18:14;;;;;;;10.55;6.40;;;;;;;15.01;100.00;101360.38;5101639;28;20023;-48
2023/08/14 05:20:46;;;;;;;10.90;7.03;;;;;;;15.07;100.00;101350.97;5101231;28;20386;-48
2023/08/14 05:23:13;;;;;;;9.10;6.20;;;;;;;15.13;100.00;101358.47;5095379;28;20031;-49
2023/08/14 05:25:40;;;;;;;10.13;6.57;;;;;;;15.21;100.00;101363.97;5098150;28;20028;-49
2023/08/14 05:28:05;;;;;;;8.45;6.75;;;;;;;15.27;100.00;101358.09;5096702;28;20028;-49
2023/08/14 05:30:31;;;;;;;9.63;6.88;;;;;;;15.33;100.00;101367.41;5096333;28;20504;-49
2023/08/14 05:32:56;;;;;;;8.50;6.60;;;;;;;15.38;100.00;101370.50;5101501;28;20031;-49
2023/08/14 05:35:24;;;;;;;10.80;7.63;;;;;;;15.45;100.00;101365.47;5099130;28;20389;-48
2023/08/14 05:37:55;;;;;;;8.57;6.88;;;;;;;15.50;100.00;101368.56;5097570;28;20020;-49
2023/08/14 05:40:27;;;;;;;10.85;7.63;;;;;;;15.54;100.00;101373.53;5098501;28;20149;-49
2023/08/14 05:43:07;;;;;;;12.18;7.55;;;;;;;15.62;100.00;101377.34;5100369;28;20023;-49
2023/08/14 05:45:37;;;;;;;13.88;8.18;;;;;;;15.66;100.00;101379.59;5094899;28;20511;-48
2023/08/14 05:48:05;;;;;;;11.43;8.13;;;;;;;15.70;100.00;101382.84;5097582;28;20054;-48
2023/08/14 05:50:31;;;;;;;9.98;7.18;;;;;;;15.75;100.00;101379.78;5100652;28;20023;-48
2023/08/14 05:53:00;;;;;;;10.45;7.90;;;;;;;15.78;100.00;101383.03;5093727;28;20111;-49
2023/08/14 05:55:26;;;;;;;11.75;8.20;;;;;;;15.81;100.00;101398.84;5097202;28;20481;-48
2023/08/14 05:57:52;;;;;;;11.02;8.05;;;;;;;15.87;100.00;101397.44;5095698;28;20054;-49
2023/08/14 06:00:19;;;;;;;12.13;7.57;;;;;;;15.89;100.00;101404.34;5096628;28;20374;-49
2023/08/14 06:02:45;;;;;;;13.32;8.50;;;;;;;15.93;100.00;101401.41;5074168;28;20063;-48
2023/08/14 06:05:10;;;;;;;14.50;8.50;;;;;;;15.97;100.00;101398.31;5097659;28;20062;-49
2023/08/14 06:07:36;;;;;;;10.07;7.50;;;;;;;16.00;100.00;101397.19;5094458;28;20114;-49
2023/08/14 06:10:05;;;;;;;11.73;7.93;;;;;;;16.04;100.00;101417.34;5099888;28;20036;-49
2023/08/14 06:12:34;;;;;;;15.43;8.35;;;;;;;16.07;100.00;101422.41;5092431;28;20023;-48
2023/08/14 06:15:00;;;;;;;13.00;8.93;;;;;;;16.12;100.00;101413.97;5096230;28;20031;-49
2023/08/14 06:17:26;;;;;;;9.27;7.97;;;;;;;16.17;100.00;101407.22;5098339;28;20442;-48
2023/08/14 06:19:51;;;;;;;14.02;8.50;;;;;;;16.21;100.00;101397.88;5095787;28;20051;-48
2023/08/14 06:22:18;;;;;;;15.10;8.57;;;;;;;16.25;100.00;101404.69;5101198;28;20032;-48
2023/08/14 06:24:43;;;;;;;15.73;9.00;;;;;;;16.29;100.00;101394.53;5098362;28;20543;-49
2023/08/14 06:27:09;;;;;;;11.63;8.23;;;;;;;16.35;100.00;101380.53;5094931;28;20031;-48
2023/08/14 06:29:34;;;;;;;11.13;8.52;;;;;;;16.43;100.00;101388.69;5096435;28;20032;-48
2023/08/14 06:32:00;;;;;;;14.10;8.85;;;;;;;16.56;100.00;101388.41;5094995;28;20494;-52
2023/08/14 06:34:26;;;;;;;11.88;8.25;;;;;;;16.68;100.00;101390.94;5091904;28;20032;-48
2023/08/14 06:36:51;;;;;;;11.80;8.15;;;;;;;16.82;100.00;101388.66;5090984;28;20027;-48
2023/08/14 06:39:17;;;;;;;11.27;8.18;;;;;;;16.96;100.00;101384.69;5099965;28;20028;-49
2023/08/14 06:41:42;;;;;;;15.50;7.97;;;;;;;17.14;100.00;101389.28;5098766;28;20016;-49
2023/08/14 06:44:11;;;;;;;12.15;7.28;;;;;;;17.23;100.00;101388.41;5100998;28;20054;-48
2023/08/14 06:46:37;;;;;;;15.80;6.68;;;;;;;17.31;100.00;101383.13;5100508;28;20028;-49
2023/08/14 06:49:02;;;;;;;12.52;6.25;;;;;;;17.41;100.00;101376.88;5103334;28;20389;-49
2023/08/14 06:51:27;;;;;;;14.52;6.50;;;;;;;17.48;100.00;101389.53;5095179;28;20036;-48
2023/08/14 06:53:53;;;;;;;12.65;6.10;;;;;;;17.57;100.00;101390.50;5099638;28;20080;-48
2023/08/14 06:56:19;;;;;;;13.50;6.03;;;;;;;17.70;100.00;101376.69;5100301;28;20024;-48
2023/08/14 06:58:44;;;;;;;9.48;5.47;;;;;;;17.84;100.00;101376.19;5103397;28;20144;-48
2023/08/14 07:01:09;;;;;;;10.18;5.38;;;;;;;18.02;100.00;101375.38;5100959;28;20024;-49
2023/08/14 07:03:35;;;;;;;11.68;5.28;;;;;;;18.28;100.00;101384.34;5102465;28;20354;-48
2023/08/14 07:06:00;;;;;;;12.80;5.85;;;;;;;18.43;100.00;101381.13;5104717;28;20020;-48
2023/08/14 07:08:25;;;;;;;11.90;4.78;;;;;;;18.59;99.97;101375.84;5099747;28;20028;-49
2023/08/14 07:10:51;;;;;;;10.18;4.72;;;;;;;18.71;98.88;101381.00;5095666;28;20020;-49
2023/08/14 07:13:16;;;;;;;9.73;4.75;;;;;;;18.78;97.80;101384.72;5097066;28;20039;-49
2023/08/14 07:15:41;;;;;;;13.07;4.55;;;;;;;18.81;96.43;101384.41;5104851;28;20028;-49
2023/08/14 07:18:07;;;;;;;7.55;4.35;;;;;;;18.84;95.57;101374.19;5099280;28;20027;-49
2023/08/14 07:20:33;;;;;;;14.18;4.18;;;;;;;18.89;95.99;101376.44;5095955;28;20016;-49
2023/08/14 07:22:59;;;;;;;9.38;4.20;;;;;;;18.95;95.51;101374.94;5097163;28;20107;-50
2023/08/14 07:25:24;;;;;;;11.88;4.53;;;;;;;18.99;95.65;101374.47;5103770;28;20016;-48
2023/08/14 07:27:50;;;;;;;7.75;4.00;;;;;;;19.16;96.37;101388.00;5095260;28;20039;-48
2023/08/14 07:30:15;;;;;;;9.50;3.90;;;;;;;19.31;92.72;101393.63;5101533;28;20020;-48
2023/08/14 07:32:40;;;;;;;10.85;3.80;;;;;;;19.38;92.97;101400.91;5103793;28;20050;-48
2023/08/14 07:35:06;;;;;;;8.73;4.30;;;;;;;19.40;90.79;101409.69;5103632;28;20109;-48
2023/08/14 07:37:31;;;;;;;13.07;4.10;;;;;;;19.50;93.53;101404.16;5102720;28;20020;-48
2023/08/14 07:39:57;;;;;;;10.35;3.60;;;;;;;19.71;93.30;101406.41;5103488;28;20381;-49
2023/08/14 07:42:22;;;;;;;12.65;4.47;;;;;;;19.85;90.52;101417.59;5094811;28;20439;-49
2023/08/14 07:44:48;;;;;;;11.68;4.13;;;;;;;20.04;89.69;101401.13;5098881;28;20386;-50
2023/08/14 07:47:13;;;;;;;10.18;3.70;;;;;;;20.39;89.33;101401.00;5091029;28;20484;-51
2023/08/14 07:49:39;;;;;;;10.65;3.55;;;;;;;20.67;86.48;101394.25;5097158;28;20027;-49
2023/08/14 07:52:09;;;;;;;8.63;3.72;;;;;;;20.94;84.06;101396.75;5094339;28;20032;-50
2023/08/14 07:54:34;;;;;;;9.40;3.50;;;;;;;21.15;81.84;101398.84;5094984;27;20030;-50
2023/08/14 07:56:59;;;;;;;9.52;3.60;;;;;;;21.26;80.51;101395.78;5090337;28;20024;-49
2023/08/14 07:59:25;;;;;;;7.40;3.00;;;;;;;21.34;80.34;101397.63;5094476;28;20350;-49
2023/08/14 08:01:50;;;;;;;8.15;3.10;;;;;;;21.56;81.53;101401.44;5100911;28;20031;-51
2023/08/14 08:04:15;;;;;;;8.27;2.75;;;;;;;21.87;76.62;101401.44;5098860;28;20593;-51
2023/08/14 08:06:41;;;;;;;10.82;2.60;;;;;;;22.21;77.90;101400.19;5103162;28;20485;-49
2023/08/14 08:09:07;;;;;;;7.35;2.90;;;;;;;22.41;74.01;101397.84;5101190;28;20031;-49
2023/08/14 08:11:33;;;;;;;6.28;2.55;;;;;;;22.68;73.56;101390.16;5100424;28;20016;-48
2023/08/14 08:13:59;;;;;;;8.88;2.40;;;;;;;22.95;72.05;101393.28;5100943;28;20381;-50
2023/08/14 08:16:24;;;;;;;7.43;2.33;;;;;;;23.20;72.38;101385.72;5100247;28;20032;-51
2023/08/14 08:18:50;;;;;;;4.97;2.13;;;;;;;23.49;69.80;101389.47;5097913;28;20512;-50
2023/08/14 08:21:15;;;;;;;7.03;2.30;;;;;;;23.63;67.43;101377.72;5100893;28;20024;-51
2023/08/14 08:23:40;;;;;;;5.13;2.00;;;;;;;23.73;65.26;101386.41;5099047;28;20035;-50
2023/08/14 08:26:06;;;;;;;7.18;2.33;;;;;;;23.94;67.65;101379.34;5101716;28;20119;-50
2023/08/14 08:28:31;;;;;;;4.05;1.83;;;;;;;24.15;65.28;101382.06;5089312;28;20055;-50
2023/08/14 08:30:56;;;;;;;6.70;2.50;;;;;;;24.50;64.60;101373.19;5100232;28;20031;-51
2023/08/14 08:33:22;;;;;;;5.03;2.20;;;;;;;24.54;61.88;101363.59;5093787;28;20020;-49
2023/08/14 08:35:47;;;;;;;7.60;2.25;;;;;;;24.62;61.96;101368.91;5096604;28;20085;-50
2023/08/14 08:38:12;;;;;;;6.25;2.03;;;;;;;24.94;63.31;101363.91;5101922;28;20024;-50
2023/08/14 08:40:41;;;;;;;3.90;1.63;;;;;;;25.07;60.81;101365.84;5092590;28;20478;-50
2023/08/14 08:43:08;;;;;;;5.10;1.70;;;;;;;25.12;58.99;101366.09;5101595;28;20035;-50
2023/08/14 08:45:35;;;;;;;5.90;2.10;;;;;;;25.34;60.05;101366.00;5094180;28;20131;-50
2023/08/14 08:48:03;;;;;;;5.57;1.80;;;;;;;25.52;57.34;101366.28;5099073;28;20039;-50
2023/08/14 08:50:30;;;;;;;5.35;1.75;;;;;;;25.78;58.11;101359.22;5097872;28;20665;-50
2023/08/14 08:52:56;;;;;;;3.72;1.83;;;;;;;25.97;55.99;101366.63;5098207;28;20532;-52
2023/08/14 08:55:22;;;;;;;6.25;2.03;;;;;;;26.20;56.00;101358.06;5099246;28;20370;-52
2023/08/14 08:57:48;;;;;;;6.30;1.80;;;;;;;26.47;54.80;101343.63;5096759;28;20024;-51
2023/08/14 09:00:14;;;;;;;6.32;2.03;;;;;;;26.69;53.60;101350.50;5100678;28;20380;-50
2023/08/14 09:02:40;;;;;;;7.35;1.90;;;;;;;26.84;53.38;101344.00;5100515;28;20031;-50
2023/08/14 09:05:05;;;;;;;6.63;2.00;;;;;;;26.81;51.34;101349.88;5103930;28;20430;-50
2023/08/14 09:07:30;;;;;;;3.08;1.50;;;;;;;27.06;54.38;101347.28;5097845;28;20038;-50
2023/08/14 09:09:56;;;;;;;3.13;1.58;;;;;;;27.21;54.37;101352.47;5100040;28;20028;-50
2023/08/14 09:12:21;;;;;;;5.93;1.77;;;;;;;27.55;51.06;101347.75;5080568;28;20554;-52
2023/08/14 09:15:02;;;;;;;4.30;1.70;;;;;;;27.75;54.21;101343.00;5087145;28;20059;-50
2023/08/14 09:17:28;;;;;;;6.13;1.98;;;;;;;27.97;50.22;101339.94;5100926;28;20024;-52
2023/08/14 09:19:53;;;;;;;5.13;2.15;;;;;;;28.29;49.77;101345.34;5096063;28;20020;-51
2023/08/14 09:22:18;;;;;;;3.80;1.80;;;;;;;28.42;46.89;101343.31;5096127;28;20024;-52
2023/08/14 09:24:44;;;;;;;8.25;1.75;;;;;;;28.63;46.45;101346.75;5099691;28;20277;-51
2023/08/14 09:27:09;;;;;;;5.47;1.92;;;;;;;28.69;47.44;101350.47;5093540;28;20028;-51
2023/08/14 09:29:35;;;;;;;4.00;1.63;;;;;;;28.95;47.29;101346.63;5090656;28;20029;-51
2023/08/14 09:32:01;;;;;;;5.05;1.70;;;;;;;29.03;45.45;101353.66;5099328;28;20073;-51
2023/08/14 09:34:27;;;;;;;3.13;1.80;;;;;;;29.15;46.17;101354.59;5100710;28;20024;-51
2023/08/14 09:36:53;;;;;;;5.43;1.70;;;;;;;29.36;44.55;101360.66;5097563;28;20139;-51
2023/08/14 09:39:18;;;;;;;4.65;2.00;;;;;;;29.50;44.20;101359.44;5091664;28;20020;-51
2023/08/14 09:41:48;;;;;;;3.55;1.60;;;;;;;29.41;44.85;101363.53;5099356;28;20501;-52
2023/08/14 09:44:14;;;;;;;4.72;2.10;;;;;;;29.76;45.07;101360.97;5094305;28;20461;-52
2023/08/14 09:46:40;;;;;;;4.80;1.67;;;;;;;29.77;42.49;101361.78;5099113;28;20032;-51
2023/08/14 09:49:05;;;;;;;4.30;1.55;;;;;;;29.68;42.82;101356.63;5098804;28;20019;-51
2023/08/14 09:51:31;;;;;;;6.40;2.00;;;;;;;29.73;43.85;101358.69;5101992;28;20023;-50
2023/08/14 09:53:57;;;;;;;7.20;2.00;;;;;;;29.77;41.65;101356.31;5101912;27;20032;-50
2023/08/14 09:56:24;;;;;;;4.88;1.92;;;;;;;29.80;42.01;101351.22;5097703;28;20028;-52
2023/08/14 09:58:50;;;;;;;4.88;1.73;;;;;;;29.82;39.86;101343.63;5096448;28;20119;-50
2023/08/14 10:01:17;;;;;;;5.80;1.80;;;;;;;30.16;40.76;101332.97;5098641;28;20439;-50
2023/08/14 10:03:46;;;;;;;5.85;1.70;;;;;;;30.27;39.05;101331.31;5098162;28;20036;-50
2023/08/14 10:06:13;;;;;;;4.95;2.00;;;;;;;30.25;41.09;101328.78;5094780;28;20023;-50
2023/08/14 10:08:42;;;;;;;6.32;1.75;;;;;;;30.36;40.91;101326.28;5097000;28;20067;-50
2023/08/14 10:11:11;;;;;;;4.57;1.70;;;;;;;30.60;41.59;101319.75;5100931;28;20024;-50
2023/08/14 10:13:43;;;;;;;5.53;2.10;;;;;;;30.71;39.72;101312.63;5096641;28;20020;-51
2023/08/14 10:16:11;;;;;;;3.33;1.55;;;;;;;30.90;37.11;101301.47;5089723;28;20050;-51
2023/08/14 10:18:38;;;;;;;;;;;;;;;31.33;42.88;101305.66;5091521;28;20438;-51
2023/08/14 10:21:09;;;;;;;3.92;1.60;;;;;;;31.09;39.13;101303.00;5089212;28;20293;-51
2023/08/14 10:23:35;;;;;;;6.93;2.15;;;;;;;31.37;36.75;101295.84;5103839;28;20412;-52
2023/08/14 10:26:00;;;;;;;5.10;1.80;;;;;;;31.39;36.72;101290.13;5098242;28;20023;-50
2023/08/14 10:28:26;;;;;;;3.88;1.38;;;;;;;31.52;36.57;101276.09;5102860;28;20035;-50
2023/08/14 10:30:52;;;;;;;6.28;1.90;;;;;;;31.50;34.87;101270.84;5099047;28;20073;-50
2023/08/14 10:33:18;;;;;;;6.43;2.00;;;;;;;31.53;36.19;101269.56;5099417;28;20043;-51
2023/08/14 10:35:49;;;;;;;4.65;1.65;;;;;;;31.62;37.90;101264.47;5094802;28;20038;-50
2023/08/14 10:38:15;;;;;;;4.82;1.63;;;;;;;31.78;36.81;101268.31;5095577;28;20051;-51
2023/08/14 10:40:53;;;;;;;5.07;1.60;;;;;;;31.89;39.76;101264.63;5100518;28;20496;-50
2023/08/14 10:43:24;;;;;;;3.33;1.38;;;;;;;31.83;37.39;101265.66;5095262;28;20046;-51
2023/08/14 10:45:51;;;;;;;29.23;3.92;;;;;;;32.02;37.37;101257.97;5089606;28;20036;-53
2023/08/14 10:48:19;;;;;;;6.82;1.70;;;;;;;32.19;35.81;101268.97;5094479;28;20077;-51
2023/08/14 10:50:48;;;;;;;4.68;1.50;;;;;;;32.09;33.79;101267.75;5098003;28;20067;-50
2023/08/14 10:53:14;;;;;;;3.75;1.45;;;;;;;32.31;35.17;101268.88;5097787;28;20477;-50
2023/08/14 10:55:44;;;;;;;6.03;2.00;;;;;;;32.21;35.66;101278.66;5094428;28;20135;-50
2023/08/14 10:58:28;;;;;;;5.32;1.65;;;;;;;32.57;36.99;101270.06;5095846;28;20108;-50
2023/08/14 11:00:54;;;;;;;4.57;1.40;;;;;;;32.31;35.52;101275.22;5103190;28;20487;-50
2023/08/14 11:03:19;;;;;;;5.40;1.60;;;;;;;32.16;34.60;101269.47;5100762;28;20500;-51
2023/08/14 11:05:44;;;;;;;3.55;1.40;;;;;;;32.27;33.81;101279.53;5096730;28;20020;-50
2023/08/14 11:08:12;;;;;;;3.97;1.65;;;;;;;32.28;35.83;101282.03;5099900;28;20032;-50
2023/08/14 11:10:38;;;;;;;7.32;2.20;;;;;;;32.38;35.01;101278.63;5095727;28;20477;-50